Time;durP1;ratioP1;P1;durP2;ratioP2;P2;SDS_P1;SDS_P2;PMS_P1;PMS_P2;Temp;Humidity;BMP_temperature;BMP_pressure;BME280_temperature;BME280_humidity;BME280_pressure;Samples;Min_cycle;Max_cycle;Signal;HPM_P1;HPM_P2
2023/03/31 00:01:25;;;;;;;;;;;;;;;7.11;100.00;96197.22;5059569;28;20364;-71
2023/03/31 00:03:51;;;;;;;;;;;;;;;7.23;100.00;96197.88;5081122;28;19921;-71
2023/03/31 00:06:19;;;;;;;;;;;;;;;7.30;100.00;96193.75;5075817;28;19920;-70
2023/03/31 00:08:44;;;;;;;;;;;;;;;7.39;100.00;96189.66;5081419;28;19916;-70
2023/03/31 00:11:10;;;;;;;;;;;;;;;7.52;100.00;96173.94;5076199;28;20301;-71
2023/03/31 00:13:36;;;;;;;;;;;;;;;7.47;100.00;96183.22;5081494;28;19983;-71
2023/03/31 00:16:06;;;;;;;;;;;;;;;7.43;100.00;96184.28;5080651;28;19927;-71
2023/03/31 00:18:31;;;;;;;;;;;;;;;7.48;100.00;96184.00;5082073;28;19923;-71
2023/03/31 00:21:13;;;;;;;;;;;;;;;7.56;100.00;96172.09;5064056;28;19920;-71
2023/03/31 00:23:39;;;;;;;;;;;;;;;7.60;100.00;96167.50;5081373;28;19960;-70
2023/03/31 00:26:04;;;;;;;;;;;;;;;7.61;100.00;96162.81;5077152;28;19966;-71
2023/03/31 00:28:30;;;;;;;;;;;;;;;7.53;100.00;96158.41;5082773;28;19931;-70
2023/03/31 00:30:58;;;;;;;;;;;;;;;7.50;100.00;96151.72;5083523;28;19967;-70
2023/03/31 00:33:24;;;;;;;;;;;;;;;7.54;100.00;96146.34;5080680;28;20339;-70
2023/03/31 00:35:50;;;;;;;;;;;;;;;7.61;100.00;96139.09;5084846;28;19924;-70
2023/03/31 00:38:15;;;;;;;;;;;;;;;7.69;100.00;96139.22;5081377;28;20018;-70
2023/03/31 00:40:46;;;;;;;;;;;;;;;7.54;100.00;96125.31;5084120;28;20376;-70
2023/03/31 00:43:22;;;;;;;;;;;;;;;7.58;100.00;96114.50;5081306;28;19969;-70
2023/03/31 00:45:48;;;;;;;;;;;;;;;7.59;100.00;96124.25;5067349;28;20402;-71
2023/03/31 00:48:16;;;;;;;;;;;;;;;7.65;100.00;96120.88;5080377;28;20003;-70
2023/03/31 00:50:53;;;;;;;;;;;;;;;7.65;100.00;96101.81;5085288;28;19920;-71
2023/03/31 00:53:20;;;;;;;;;;;;;;;7.62;100.00;96104.47;5080698;28;19931;-70
2023/03/31 00:55:51;;;;;;;;;;;;;;;7.63;100.00;96109.56;5086181;28;20049;-71
2023/03/31 00:58:19;;;;;;;;;;;;;;;7.67;100.00;96096.00;5077040;28;20429;-70
2023/03/31 01:00:47;;;;;;;;;;;;;;;7.68;100.00;96091.31;5085025;28;19973;-71
2023/03/31 01:03:14;;;;;;;;;;;;;;;7.76;100.00;96090.28;5079475;28;20042;-70
2023/03/31 01:05:50;;;;;;;;;;;;;;;7.73;100.00;96078.16;5085766;28;19920;-69
2023/03/31 01:08:17;;;;;;;;;;;;;;;7.68;100.00;96083.16;5093927;28;19916;-70
2023/03/31 01:10:45;;;;;;;;;;;;;;;7.69;100.00;96069.16;5097007;28;20333;-69
2023/03/31 01:13:11;;;;;;;;;;;;;;;7.74;100.00;96076.22;5081000;28;19920;-69
2023/03/31 01:15:37;;;;;;;;;;;;;;;7.78;100.00;96066.97;5084794;28;20392;-70
2023/03/31 01:18:04;;;;;;;;;;;;;;;7.91;100.00;96069.50;5082448;28;20036;-71
2023/03/31 01:20:29;;;;;;;;;;;;;;;7.90;100.00;96082.34;5084865;28;19924;-69
2023/03/31 01:22:58;;;;;;;;;;;;;;;7.89;100.00;96080.00;5084960;28;19920;-69
2023/03/31 01:25:50;;;;;;;;;;;;;;;7.86;100.00;96103.31;5079842;28;19963;-70
2023/03/31 01:28:22;;;;;;;;;;;;;;;7.90;100.00;96109.59;5079807;28;19920;-71
2023/03/31 01:31:01;;;;;;;;;;;;;;;7.90;100.00;96120.50;5083535;28;19923;-71
2023/03/31 01:33:39;;;;;;;;;;;;;;;7.80;100.00;96113.75;5081898;28;19916;-70
2023/03/31 01:36:20;;;;;;;;;;;;;;;7.70;100.00;96100.69;5091945;28;19924;-70
2023/03/31 01:38:51;;;;;;;;;;;;;;;7.86;100.00;96092.41;5088178;28;20276;-69
2023/03/31 01:41:26;;;;;;;;;;;;;;;8.01;100.00;96079.78;5079432;28;19966;-69
2023/03/31 01:43:51;;;;;;;;;;;;;;;8.08;100.00;96090.03;5085411;28;20347;-71
2023/03/31 01:46:39;;;;;;;;;;;;;;;8.12;100.00;96085.41;5076178;28;19948;-71
2023/03/31 01:49:24;;;;;;;;;;;;;;;8.39;100.00;96073.38;5075188;28;19939;-69
2023/03/31 01:52:02;;;;;;;;;;;;;;;8.31;100.00;96088.06;5083270;28;19924;-71
2023/03/31 01:54:27;;;;;;;;;;;;;;;8.23;100.00;96087.19;5081166;28;19920;-68
2023/03/31 01:57:01;;;;;;;;;;;;;;;8.13;100.00;96085.06;5092733;28;19932;-70
2023/03/31 01:59:29;;;;;;;;;;;;;;;8.09;100.00;96080.72;5078904;28;19969;-71
2023/03/31 02:02:05;;;;;;;;;;;;;;;8.14;100.00;96080.38;5083876;28;19943;-71
2023/03/31 02:04:32;;;;;;;;;;;;;;;8.11;100.00;96067.50;5087324;28;19924;-71
2023/03/31 02:07:02;;;;;;;;;;;;;;;7.99;100.00;96054.81;5084933;28;20376;-71
2023/03/31 02:09:30;;;;;;;;;;;;;;;7.95;100.00;96048.53;5070504;28;20002;-70
2023/03/31 02:11:57;;;;;;;;;;;;;;;7.94;100.00;96053.22;5084721;28;19924;-71
2023/03/31 02:14:24;;;;;;;;;;;;;;;7.80;100.00;96033.91;5078794;28;20334;-70
2023/03/31 02:16:52;;;;;;;;;;;;;;;7.60;100.00;96031.22;5082732;28;20369;-71
2023/03/31 02:19:19;;;;;;;;;;;;;;;7.56;100.00;96024.94;5076640;28;20407;-70
2023/03/31 02:21:50;;;;;;;;;;;;;;;7.60;100.00;96025.78;5084510;28;19917;-70
2023/03/31 02:24:17;;;;;;;;;;;;;;;7.81;100.00;96017.19;5080904;28;19920;-70
2023/03/31 02:26:48;;;;;;;;;;;;;;;7.96;100.00;96011.94;5085531;28;19954;-70
2023/03/31 02:29:13;;;;;;;;;;;;;;;8.03;100.00;96017.50;5059918;28;19963;-70
2023/03/31 02:31:57;;;;;;;;;;;;;;;8.01;100.00;96006.16;5084053;28;19951;-70
2023/03/31 02:34:22;;;;;;;;;;;;;;;8.01;100.00;96003.44;5078539;28;20300;-70
2023/03/31 02:36:48;;;;;;;;;;;;;;;8.04;100.00;95995.31;5082412;28;19938;-70
2023/03/31 02:39:16;;;;;;;;;;;;;;;8.04;100.00;96008.94;5076804;28;20006;-70
2023/03/31 02:41:42;;;;;;;;;;;;;;;8.11;100.00;96002.03;5082780;28;19920;-70
2023/03/31 02:44:08;;;;;;;;;;;;;;;8.32;100.00;96001.53;5078254;28;19916;-70
2023/03/31 02:46:34;;;;;;;;;;;;;;;8.63;100.00;95999.66;5081916;28;19923;-70
2023/03/31 02:49:01;;;;;;;;;;;;;;;8.69;100.00;96001.66;5064628;28;20292;-70
2023/03/31 02:51:42;;;;;;;;;;;;;;;8.56;100.00;96003.84;5077532;28;19931;-70
2023/03/31 02:54:30;;;;;;;;;;;;;;;8.33;100.00;95973.09;5076435;28;19943;-70
2023/03/31 02:57:11;;;;;;;;;;;;;;;8.31;100.00;95953.59;5082654;28;19920;-70
2023/03/31 02:59:42;;;;;;;;;;;;;;;8.02;100.00;95955.94;5082978;28;19920;-71
2023/03/31 03:02:07;;;;;;;;;;;;;;;7.75;100.00;95963.31;5077694;28;19962;-71
2023/03/31 03:04:35;;;;;;;;;;;;;;;7.80;100.00;95963.78;5080503;28;19927;-71
2023/03/31 03:07:00;;;;;;;;;;;;;;;7.79;100.00;95939.63;5083051;28;19951;-71
2023/03/31 03:09:45;;;;;;;;;;;;;;;7.66;100.00;95907.13;5077843;28;20368;-71
2023/03/31 03:12:21;;;;;;;;;;;;;;;7.65;100.00;95902.84;5077062;28;19959;-71
2023/03/31 03:14:55;;;;;;;;;;;;;;;7.68;100.00;95898.56;5064159;28;19973;-71
2023/03/31 03:17:20;;;;;;;;;;;;;;;7.69;100.00;95891.19;5076035;28;19916;-72
2023/03/31 03:19:49;;;;;;;;;;;;;;;7.79;100.00;95885.09;5081517;28;19985;-72
2023/03/31 03:22:14;;;;;;;;;;;;;;;8.09;100.00;95889.81;5078600;28;20007;-71
2023/03/31 03:24:41;;;;;;;;;;;;;;;8.37;100.00;95889.34;5064828;28;20376;-71
2023/03/31 03:27:06;;;;;;;;;;;;;;;8.36;100.00;95874.16;5076864;28;20035;-72
2023/03/31 03:29:32;;;;;;;;;;;;;;;8.53;100.00;95873.56;5083396;28;20056;-71
2023/03/31 03:31:57;;;;;;;;;;;;;;;8.53;100.00;95870.84;5083269;28;19916;-72
2023/03/31 03:34:24;;;;;;;;;;;;;;;8.49;100.00;95866.53;5075822;28;19970;-72
2023/03/31 03:36:50;;;;;;;;;;;;;;;8.50;100.00;95868.06;5081976;28;19920;-72
2023/03/31 03:39:16;;;;;;;;;;;;;;;8.52;100.00;95849.41;5076567;28;19920;-71
2023/03/31 03:41:41;;;;;;;;;;;;;;;8.59;100.00;95849.50;5081551;28;20519;-71
2023/03/31 03:44:06;;;;;;;;;;;;;;;8.58;100.00;95856.88;5073578;28;20018;-70
2023/03/31 03:46:32;;;;;;;;;;;;;;;8.54;100.00;95847.09;5063716;28;20296;-71
2023/03/31 03:48:57;;;;;;;;;;;;;;;8.48;100.00;95843.09;5082216;28;19917;-71
2023/03/31 03:51:22;;;;;;;;;;;;;;;8.33;100.00;95840.19;5077005;28;20961;-71
2023/03/31 03:53:48;;;;;;;;;;;;;;;8.41;100.00;95836.41;5083227;28;19916;-71
2023/03/31 03:56:13;;;;;;;;;;;;;;;8.41;100.00;95839.13;5076866;28;19927;-71
2023/03/31 03:58:38;;;;;;;;;;;;;;;8.26;100.00;95823.75;5080373;28;19959;-71
2023/03/31 04:01:04;;;;;;;;;;;;;;;8.37;100.00;95810.22;5077298;28;20423;-72
2023/03/31 04:03:30;;;;;;;;;;;;;;;8.52;100.00;95805.75;5090525;28;19924;-72
2023/03/31 04:05:55;;;;;;;;;;;;;;;8.42;100.00;95783.41;5084241;28;19920;-71
2023/03/31 04:08:20;;;;;;;;;;;;;;;8.45;100.00;95772.94;5080530;28;20330;-70
2023/03/31 04:10:47;;;;;;;;;;;;;;;8.30;100.00;95770.03;5086117;28;19931;-71
2023/03/31 04:13:13;;;;;;;;;;;;;;;8.33;100.00;95752.09;5081845;28;20469;-71
2023/03/31 04:15:39;;;;;;;;;;;;;;;7.99;100.00;95735.78;5082670;28;20273;-70
2023/03/31 04:18:05;;;;;;;;;;;;;;;7.76;100.00;95720.34;5077395;28;19927;-71
2023/03/31 04:20:30;;;;;;;;;;;;;;;7.73;100.00;95709.41;5081885;28;19920;-70
2023/03/31 04:22:56;;;;;;;;;;;;;;;7.82;100.00;95707.97;5081837;28;19926;-69
2023/03/31 04:25:21;;;;;;;;;;;;;;;7.90;100.00;95702.59;5076349;28;20293;-70
2023/03/31 04:27:53;;;;;;;;;;;;;;;7.98;100.00;95710.47;5080207;28;19978;-71
2023/03/31 04:30:29;;;;;;;;;;;;;;;8.01;100.00;95711.66;5076929;28;20376;-70
2023/03/31 04:32:56;;;;;;;;;;;;;;;7.98;100.00;95698.78;5082368;28;20360;-69
2023/03/31 04:35:22;;;;;;;;;;;;;;;8.00;100.00;95691.78;5076678;28;19928;-70
2023/03/31 04:37:48;;;;;;;;;;;;;;;7.83;100.00;95676.03;5082143;28;20018;-70
2023/03/31 04:40:13;;;;;;;;;;;;;;;7.67;100.00;95657.19;5074573;28;20046;-71
2023/03/31 04:42:38;;;;;;;;;;;;;;;7.61;100.00;95645.81;5081978;28;19917;-71
2023/03/31 04:45:04;;;;;;;;;;;;;;;7.62;100.00;95641.94;5086222;28;19923;-72
2023/03/31 04:47:29;;;;;;;;;;;;;;;7.66;100.00;95653.66;5094496;28;19920;-70
2023/03/31 04:49:55;;;;;;;;;;;;;;;7.71;100.00;95647.09;5082998;28;19920;-70
2023/03/31 04:52:20;;;;;;;;;;;;;;;7.77;100.00;95650.25;5077213;28;20437;-71
2023/03/31 04:54:45;;;;;;;;;;;;;;;7.79;100.00;95640.53;5082740;28;19924;-70
2023/03/31 04:57:11;;;;;;;;;;;;;;;7.91;100.00;95636.00;5076273;28;19955;-71
2023/03/31 04:59:36;;;;;;;;;;;;;;;7.86;100.00;95615.31;5081926;28;20025;-70
2023/03/31 05:02:01;;;;;;;;;;;;;;;7.89;100.00;95583.81;5081333;28;19916;-70
2023/03/31 05:04:26;;;;;;;;;;;;;;;7.88;100.00;95572.09;5058536;28;19927;-70
2023/03/31 05:06:52;;;;;;;;;;;;;;;7.93;100.00;95554.63;5078448;28;19957;-70
2023/03/31 05:09:17;;;;;;;;;;;;;;;7.80;100.00;95557.63;5061617;28;19978;-70
2023/03/31 05:11:44;;;;;;;;;;;;;;;7.71;100.00;95553.66;5085354;28;20384;-70
2023/03/31 05:14:10;;;;;;;;;;;;;;;7.70;100.00;95552.84;5089319;28;19928;-71
2023/03/31 05:16:35;;;;;;;;;;;;;;;7.85;100.00;95553.78;5087934;28;19971;-70
2023/03/31 05:19:01;;;;;;;;;;;;;;;7.84;100.00;95541.28;5068068;28;20002;-71
2023/03/31 05:21:27;;;;;;;;;;;;;;;7.79;100.00;95536.97;5080065;28;19923;-71
2023/03/31 05:23:52;;;;;;;;;;;;;;;7.76;100.00;95537.75;5083805;28;19920;-70
2023/03/31 05:26:18;;;;;;;;;;;;;;;7.83;100.00;95550.63;5078463;28;19950;-70
2023/03/31 05:28:43;;;;;;;;;;;;;;;7.82;100.00;95536.22;5085982;28;20030;-70
2023/03/31 05:31:10;;;;;;;;;;;;;;;7.87;100.00;95537.81;5078848;28;20292;-70
2023/03/31 05:33:39;;;;;;;;;;;;;;;7.90;100.00;95530.81;5084861;28;20007;-70
2023/03/31 05:36:04;;;;;;;;;;;;;;;7.96;100.00;95532.03;5080384;28;19960;-71
2023/03/31 05:38:30;;;;;;;;;;;;;;;8.01;100.00;95526.22;5084358;28;19947;-70
2023/03/31 05:40:55;;;;;;;;;;;;;;;8.09;100.00;95527.09;5083693;28;19947;-70
2023/03/31 05:43:21;;;;;;;;;;;;;;;8.01;100.00;95518.84;5079747;28;20006;-70
2023/03/31 05:45:46;;;;;;;;;;;;;;;8.07;100.00;95526.66;5086884;28;20407;-71
2023/03/31 05:48:11;;;;;;;;;;;;;;;8.44;100.00;95533.94;5080718;28;19915;-70
2023/03/31 05:50:37;;;;;;;;;;;;;;;8.70;100.00;95549.31;5083144;28;19916;-71
2023/03/31 05:53:02;;;;;;;;;;;;;;;8.70;100.00;95554.78;5082992;28;19931;-70
2023/03/31 05:55:27;;;;;;;;;;;;;;;8.67;100.00;95561.75;5081994;28;19920;-71
2023/03/31 05:57:53;;;;;;;;;;;;;;;8.68;100.00;95582.44;5086675;28;20351;-70
2023/03/31 06:00:19;;;;;;;;;;;;;;;8.65;100.00;95579.69;5068702;28;19922;-71
2023/03/31 06:02:44;;;;;;;;;;;;;;;8.73;100.00;95594.94;5084037;28;19920;-71
2023/03/31 06:05:10;;;;;;;;;;;;;;;8.92;100.00;95583.72;5078591;28;19973;-71
2023/03/31 06:07:35;;;;;;;;;;;;;;;8.96;100.00;95572.81;5082433;28;19978;-72
2023/03/31 06:10:01;;;;;;;;;;;;;;;8.99;100.00;95555.69;5083763;28;19916;-71
2023/03/31 06:12:26;;;;;;;;;;;;;;;8.96;100.00;95537.31;5078629;28;19922;-73
2023/03/31 06:14:51;;;;;;;;;;;;;;;8.99;100.00;95553.72;5085534;28;19920;-73
2023/03/31 06:17:17;;;;;;;;;;;;;;;8.91;100.00;95595.84;5078379;28;19920;-72
2023/03/31 06:19:42;;;;;;;;;;;;;;;9.02;100.00;95573.22;5082154;28;20387;-73
2023/03/31 06:22:07;;;;;;;;;;;;;;;8.88;100.00;95528.31;5078684;28;19920;-71
2023/03/31 06:24:32;;;;;;;;;;;;;;;8.85;100.00;95545.47;5081795;28;19928;-72
2023/03/31 06:26:59;;;;;;;;;;;;;;;8.90;100.00;95553.28;5062227;28;19942;-71
2023/03/31 06:29:26;;;;;;;;;;;;;;;8.96;100.00;95540.06;5078177;28;19916;-72
2023/03/31 06:31:51;;;;;;;;;;;;;;;8.78;100.00;95557.13;5082869;28;19927;-71
2023/03/31 06:34:17;;;;;;;;;;;;;;;8.80;100.00;95529.44;5059917;28;20288;-72
2023/03/31 06:36:42;;;;;;;;;;;;;;;8.75;100.00;95521.63;5081974;28;20327;-71
2023/03/31 06:39:07;;;;;;;;;;;;;;;8.67;100.00;95514.59;5078657;28;19923;-71
2023/03/31 06:41:32;;;;;;;;;;;;;;;8.83;100.00;95522.47;5083191;28;20242;-71
2023/03/31 06:43:58;;;;;;;;;;;;;;;9.08;100.00;95517.09;5083127;28;19916;-71
2023/03/31 06:46:23;;;;;;;;;;;;;;;9.09;100.00;95511.25;5076040;28;20026;-71
2023/03/31 06:48:48;;;;;;;;;;;;;;;9.09;100.00;95529.56;5082627;28;19920;-72
2023/03/31 06:51:14;;;;;;;;;;;;;;;8.94;100.00;95534.97;5078558;28;19939;-70
2023/03/31 06:53:39;;;;;;;;;;;;;;;9.36;100.00;95560.09;5081728;28;19920;-70
2023/03/31 06:56:05;;;;;;;;;;;;;;;9.37;100.00;95537.84;5078061;28;20328;-71
2023/03/31 06:58:30;;;;;;;;;;;;;;;9.27;100.00;95557.72;5064704;28;19916;-70
2023/03/31 07:00:56;;;;;;;;;;;;;;;9.25;100.00;95564.75;5081344;28;19969;-72
2023/03/31 07:03:21;;;;;;;;;;;;;;;9.19;100.00;95603.34;5077012;28;21542;-71
2023/03/31 07:05:47;;;;;;;;;;;;;;;9.24;100.00;95615.88;5063879;28;19920;-71
2023/03/31 07:08:12;;;;;;;;;;;;;;;9.03;100.00;95624.75;5078003;28;19916;-71
2023/03/31 07:10:37;;;;;;;;;;;;;;;9.09;100.00;95614.22;5083241;28;20427;-71
2023/03/31 07:13:03;;;;;;;;;;;;;;;9.21;100.00;95588.53;5080046;28;20254;-71
2023/03/31 07:15:29;;;;;;;;;;;;;;;9.37;100.00;95559.69;5078258;28;19924;-71
2023/03/31 07:18:00;;;;;;;;;;;;;;;9.92;100.00;95555.09;5082320;28;19920;-70
2023/03/31 07:20:26;;;;;;;;;;;;;;;10.89;100.00;95571.41;5057158;28;19980;-72
2023/03/31 07:22:52;;;;;;;;;;;;;;;10.87;100.00;95565.56;5082594;28;19923;-73
2023/03/31 07:25:17;;;;;;;;;;;;;;;10.88;100.00;95567.13;5076829;28;20395;-73
2023/03/31 07:27:43;;;;;;;;;;;;;;;11.04;100.00;95561.22;5081089;28;19916;-73
2023/03/31 07:30:10;;;;;;;;;;;;;;;11.40;100.00;95569.28;5060036;28;19920;-72
2023/03/31 07:32:40;;;;;;;;;;;;;;;11.50;100.00;95576.66;5082184;28;19920;-74
2023/03/31 07:35:09;;;;;;;;;;;;;;;11.32;100.00;95614.34;5059046;28;19920;-72
2023/03/31 07:37:38;;;;;;;;;;;;;;;11.19;100.00;95642.19;5081460;28;20280;-72
2023/03/31 07:40:04;;;;;;;;;;;;;;;11.33;100.00;95666.03;5060498;28;20372;-70
2023/03/31 07:42:30;;;;;;;;;;;;;;;11.14;100.00;95680.19;5064173;28;20334;-72
2023/03/31 07:44:56;;;;;;;;;;;;;;;10.76;100.00;95709.97;5082209;28;19920;-71
2023/03/31 07:47:22;;;;;;;;;;;;;;;10.50;100.00;95718.19;5078258;28;20408;-71
2023/03/31 07:49:49;;;;;;;;;;;;;;;10.21;100.00;95673.56;5083427;28;20427;-71
2023/03/31 07:52:14;;;;;;;;;;;;;;;10.06;100.00;95672.72;5058386;28;19924;-72
2023/03/31 07:54:40;;;;;;;;;;;;;;;10.01;100.00;95647.72;5082707;28;19920;-71
2023/03/31 07:57:07;;;;;;;;;;;;;;;10.00;100.00;95635.22;5075843;28;19920;-70
2023/03/31 07:59:32;;;;;;;;;;;;;;;10.06;100.00;95631.69;5082713;28;19916;-72
2023/03/31 08:01:57;;;;;;;;;;;;;;;10.36;100.00;95630.56;5081148;28;20392;-72
2023/03/31 08:04:23;;;;;;;;;;;;;;;10.39;100.00;95635.28;5076082;28;19924;-73
2023/03/31 08:06:50;;;;;;;;;;;;;;;10.36;100.00;95633.31;5081179;28;20002;-72
2023/03/31 08:09:16;;;;;;;;;;;;;;;10.44;100.00;95634.09;5076475;28;19923;-73
2023/03/31 08:11:42;;;;;;;;;;;;;;;10.59;100.00;95640.34;5089435;28;20256;-74
2023/03/31 08:14:07;;;;;;;;;;;;;;;10.59;100.00;95645.81;5080997;28;19916;-72
2023/03/31 08:16:32;;;;;;;;;;;;;;;10.81;100.00;95644.63;5083360;28;20012;-72
2023/03/31 08:18:57;;;;;;;;;;;;;;;10.93;100.00;95637.16;5085051;28;19916;-71
2023/03/31 08:21:23;;;;;;;;;;;;;;;11.09;100.00;95624.59;5085706;28;19924;-73
2023/03/31 08:23:48;;;;;;;;;;;;;;;11.90;100.00;95629.34;5083888;28;19920;-73
2023/03/31 08:26:16;;;;;;;;;;;;;;;12.50;100.00;95635.59;5078422;28;19920;-73
2023/03/31 08:28:42;;;;;;;;;;;;;;;13.27;100.00;95653.72;5083126;28;19959;-72
2023/03/31 08:31:07;;;;;;;;;;;;;;;14.55;100.00;95646.94;5078695;28;19962;-72
2023/03/31 08:33:33;;;;;;;;;;;;;;;15.27;91.94;95648.47;5081693;28;20395;-73
2023/03/31 08:36:02;;;;;;;;;;;;;;;14.54;91.65;95648.88;5081570;28;20280;-73
2023/03/31 08:38:28;;;;;;;;;;;;;;;14.00;94.92;95632.41;5078961;28;19939;-72
2023/03/31 08:41:04;;;;;;;;;;;;;;;13.75;96.89;95632.72;5081174;28;20373;-72
2023/03/31 08:43:36;;;;;;;;;;;;;;;13.63;94.10;95622.28;5079316;28;20577;-72
2023/03/31 08:46:02;;;;;;;;;;;;;;;14.21;97.92;95620.28;5081567;28;19916;-72
2023/03/31 08:48:27;;;;;;;;;;;;;;;15.14;94.34;95625.44;5077067;28;19924;-73
2023/03/31 08:50:56;;;;;;;;;;;;;;;15.59;92.82;95624.97;5100672;28;19915;-73
2023/03/31 08:53:30;;;;;;;;;;;;;;;15.83;92.03;95648.56;5089841;28;20387;-72
2023/03/31 08:55:57;;;;;;;;;;;;;;;16.42;79.11;95640.53;5085902;28;19977;-72
2023/03/31 08:58:31;;;;;;;;;;;;;;;16.78;76.82;95637.69;5079978;28;19924;-71
2023/03/31 09:01:03;;;;;;;;;;;;;;;16.34;73.26;95623.34;5085680;28;19931;-72
2023/03/31 09:04:03;;;;;;;;;;;;;;;16.31;75.47;95601.31;5084410;28;20018;-72
2023/03/31 09:06:29;;;;;;;;;;;;;;;15.46;80.23;95616.56;5004890;28;19921;-71
2023/03/31 09:08:57;;;;;;;;;;;;;;;15.43;78.14;95609.13;5070908;28;19923;-72
2023/03/31 09:11:41;;;;;;;;;;;;;;;15.08;79.16;95603.09;5079991;28;20363;-71
2023/03/31 09:14:25;;;;;;;;;;;;;;;14.56;82.73;95587.84;5080260;28;19920;-71
2023/03/31 09:17:03;;;;;;;;;;;;;;;14.09;84.64;95596.84;5085976;28;19928;-71
2023/03/31 09:19:28;;;;;;;;;;;;;;;13.86;84.67;95583.06;5083538;28;19920;-73
2023/03/31 09:21:55;;;;;;;;;;;;;;;13.70;84.66;95592.72;5086861;28;19917;-72
2023/03/31 09:24:27;;;;;;;;;;;;;;;13.51;87.85;95591.38;5079194;28;19916;-72
2023/03/31 09:26:56;;;;;;;;;;;;;;;13.46;88.76;95585.56;5082722;28;19946;-72
2023/03/31 09:29:28;;;;;;;;;;;;;;;13.48;87.59;95581.19;5078125;28;19916;-71
2023/03/31 09:31:54;;;;;;;;;;;;;;;13.52;87.67;95562.69;5067536;28;19924;-71
2023/03/31 09:34:31;;;;;;;;;;;;;;;13.35;87.64;95574.69;5061354;28;19923;-71
2023/03/31 09:36:56;;;;;;;;;;;;;;;13.25;89.27;95570.84;5083481;28;19924;-71
2023/03/31 09:39:21;;;;;;;;;;;;;;;13.20;88.72;95571.31;5079826;28;19931;-71
2023/03/31 09:41:49;;;;;;;;;;;;;;;13.13;90.56;95555.69;5084050;28;20467;-72
2023/03/31 09:44:26;;;;;;;;;;;;;;;13.69;86.21;95568.38;5079030;28;19916;-72
2023/03/31 09:46:52;;;;;;;;;;;;;;;14.03;83.63;95565.50;5083526;28;20300;-72
2023/03/31 09:49:19;;;;;;;;;;;;;;;13.81;85.51;95600.81;5079939;28;20376;-72
2023/03/31 09:51:46;;;;;;;;;;;;;;;13.42;85.70;95593.84;5093883;28;19916;-72
2023/03/31 09:54:11;;;;;;;;;;;;;;;12.97;88.87;95585.72;5081638;28;20417;-71
2023/03/31 09:56:47;;;;;;;;;;;;;;;12.66;92.27;95618.59;5082999;28;19947;-72
2023/03/31 09:59:15;;;;;;;;;;;;;;;11.20;96.54;95629.25;5060356;28;19916;-71
2023/03/31 10:01:41;;;;;;;;;;;;;;;9.82;100.00;95559.38;5084385;28;19916;-71
2023/03/31 10:04:15;;;;;;;;;;;;;;;9.81;100.00;95582.44;5080048;28;20477;-72
2023/03/31 10:06:41;;;;;;;;;;;;;;;9.74;100.00;95577.75;5085208;28;19923;-72
2023/03/31 10:09:09;;;;;;;;;;;;;;;10.08;100.00;95588.34;5081846;28;20372;-68
2023/03/31 10:11:34;;;;;;;;;;;;;;;10.86;100.00;95580.44;5086462;28;19934;-74
2023/03/31 10:14:00;;;;;;;;;;;;;;;11.00;100.00;95587.81;5085679;28;20003;-73
2023/03/31 10:16:28;;;;;;;;;;;;;;;11.18;100.00;95571.31;5077966;28;19935;-73
2023/03/31 10:18:53;;;;;;;;;;;;;;;12.00;100.00;95562.66;5084211;28;19975;-73
2023/03/31 10:21:23;;;;;;;;;;;;;;;11.87;100.00;95597.22;5077558;28;19917;-72
2023/03/31 10:23:49;;;;;;;;;;;;;;;11.62;100.00;95580.91;5083427;28;19916;-73
2023/03/31 10:26:28;;;;;;;;;;;;;;;11.64;100.00;95584.03;5080574;28;20632;-73
2023/03/31 10:28:54;;;;;;;;;;;;;;;11.46;100.00;95584.13;5084957;28;19923;-72
2023/03/31 10:31:23;;;;;;;;;;;;;;;11.67;100.00;95559.31;5077915;28;20453;-73
2023/03/31 10:33:50;;;;;;;;;;;;;;;12.51;100.00;95541.03;5083735;28;19923;-72
2023/03/31 10:36:21;;;;;;;;;;;;;;;13.18;100.00;95537.94;5077245;28;19920;-73
2023/03/31 10:38:47;;;;;;;;;;;;;;;12.68;100.00;95555.03;5081973;28;19924;-72
2023/03/31 10:41:17;;;;;;;;;;;;;;;12.77;100.00;95547.84;5077876;28;20415;-73
2023/03/31 10:43:46;;;;;;;;;;;;;;;12.63;100.00;95537.00;5082427;28;20412;-72
2023/03/31 10:46:12;;;;;;;;;;;;;;;12.54;100.00;95510.00;5077962;28;19920;-72
2023/03/31 10:48:39;;;;;;;;;;;;;;;13.22;100.00;95511.19;5083273;28;20329;-74
2023/03/31 10:51:05;;;;;;;;;;;;;;;13.35;100.00;95498.47;5078094;28;19977;-70
2023/03/31 10:53:39;;;;;;;;;;;;;;;13.77;96.15;95490.81;5073398;28;19920;-72
2023/03/31 10:56:25;;;;;;;;;;;;;;;14.17;96.47;95492.91;5077406;28;19927;-70
2023/03/31 10:58:59;;;;;;;;;;;;;;;14.95;84.38;95484.41;5032589;28;19916;-72
2023/03/31 11:01:39;;;;;;;;;;;;;;;14.52;86.17;95494.25;5078175;28;19916;-71
2023/03/31 11:04:15;;;;;;;;;;;;;;;14.34;89.26;95482.78;5077399;28;20009;-71
2023/03/31 11:06:46;;;;;;;;;;;;;;;14.16;87.88;95483.09;5082364;28;19923;-72
2023/03/31 11:09:34;;;;;;;;;;;;;;;13.64;89.19;95484.31;5076975;28;19970;-71
2023/03/31 11:11:59;;;;;;;;;;;;;;;13.36;93.15;95491.78;5081443;28;19969;-71
2023/03/31 11:14:34;;;;;;;;;;;;;;;12.87;97.10;95510.44;5076323;28;20297;-71
2023/03/31 11:17:06;;;;;;;;;;;;;;;12.66;99.59;95519.72;5085477;28;19928;-71
2023/03/31 11:19:50;;;;;;;;;;;;;;;12.23;98.43;95468.75;5083818;28;19975;-71
2023/03/31 11:22:30;;;;;;;;;;;;;;;11.67;91.50;95443.38;5080806;28;19981;-71
2023/03/31 11:24:55;;;;;;;;;;;;;;;11.67;94.77;95479.78;5087952;28;19982;-72
2023/03/31 11:27:21;;;;;;;;;;;;;;;11.31;97.81;95495.72;5077792;28;20864;-72
2023/03/31 11:29:52;;;;;;;;;;;;;;;11.30;98.80;95502.34;5082654;28;19922;-72
2023/03/31 11:32:21;;;;;;;;;;;;;;;11.04;96.35;95484.50;5077839;28;20057;-70
2023/03/31 11:34:59;;;;;;;;;;;;;;;10.86;92.23;95444.28;5081134;28;19959;-70
2023/03/31 11:37:44;;;;;;;;;;;;;;;10.67;87.52;95451.00;5076965;28;20028;-71
2023/03/31 11:40:28;;;;;;;;;;;;;;;10.58;83.18;95461.59;5078142;28;19947;-71
2023/03/31 11:42:57;;;;;;;;;;;;;;;10.57;85.86;95470.19;5082079;28;19923;-70
2023/03/31 11:45:32;;;;;;;;;;;;;;;10.51;86.53;95535.53;5076474;28;19939;-69
2023/03/31 11:48:04;;;;;;;;;;;;;;;10.54;86.00;95495.66;5081872;28;19917;-73
2023/03/31 11:50:33;;;;;;;;;;;;;;;10.61;79.66;95419.75;5080916;28;19931;-70
2023/03/31 11:53:04;;;;;;;;;;;;;;;10.52;85.54;95463.97;5082052;28;19916;-71
2023/03/31 11:55:31;;;;;;;;;;;;;;;10.68;84.58;95432.63;5080736;28;19931;-72
2023/03/31 11:57:58;;;;;;;;;;;;;;;10.95;73.26;95448.50;5081908;28;20399;-73
2023/03/31 12:00:26;;;;;;;;;;;;;;;11.24;72.60;95429.97;5086522;28;20237;-72
2023/03/31 12:02:55;;;;;;;;;;;;;;;11.57;69.09;95398.38;5090745;28;19923;-72
2023/03/31 12:05:25;;;;;;;;;;;;;;;12.07;68.36;95404.63;5077082;28;20460;-70
2023/03/31 12:08:01;;;;;;;;;;;;;;;12.59;64.15;95391.47;5080019;28;19920;-72
2023/03/31 12:10:37;;;;;;;;;;;;;;;13.23;67.03;95386.25;5075725;28;19970;-72
2023/03/31 12:13:05;;;;;;;;;;;;;;;13.43;63.27;95397.38;5081797;28;20011;-72
2023/03/31 12:15:39;;;;;;;;;;;;;;;13.66;65.28;95391.13;5081144;28;19926;-72
2023/03/31 12:18:12;;;;;;;;;;;;;;;13.54;65.25;95389.75;5076113;28;19959;-69
2023/03/31 12:20:41;;;;;;;;;;;;;;;13.59;63.64;95399.50;5082455;28;19916;-72
2023/03/31 12:23:15;;;;;;;;;;;;;;;13.30;64.59;95402.66;5077710;28;19939;-72
2023/03/31 12:26:06;;;;;;;;;;;;;;;13.55;64.83;95407.03;5069320;28;19916;-73
2023/03/31 12:28:33;;;;;;;;;;;;;;;13.22;66.43;95403.19;5082631;28;20016;-70
2023/03/31 12:31:00;;;;;;;;;;;;;;;13.49;66.16;95416.97;5089548;28;19922;-72
2023/03/31 12:33:43;;;;;;;;;;;;;;;13.89;65.07;95411.59;5066538;28;20000;-73
2023/03/31 12:36:17;;;;;;;;;;;;;;;13.92;68.58;95411.53;5059732;28;19920;-72
2023/03/31 12:39:01;;;;;;;;;;;;;;;13.81;68.00;95405.44;5065972;28;19963;-72
2023/03/31 12:41:36;;;;;;;;;;;;;;;13.29;70.00;95400.31;5063368;28;20046;-72
2023/03/31 12:44:04;;;;;;;;;;;;;;;13.15;72.71;95415.84;5068686;28;19917;-70
2023/03/31 12:46:35;;;;;;;;;;;;;;;12.80;77.12;95426.13;5067937;28;19920;-72
2023/03/31 12:49:30;;;;;;;;;;;;;;;12.21;82.90;95423.69;5068401;28;19921;-72
2023/03/31 12:52:03;;;;;;;;;;;;;;;11.79;86.90;95440.13;5052493;28;20261;-71
2023/03/31 12:54:31;;;;;;;;;;;;;;;11.54;87.97;95445.81;5071269;28;20011;-71